sensor_id;sensor_type;location;lat;lon;timestamp;P1;durP1;ratioP1;P2;durP2;ratioP2
53052;SDS011;38934;52.690;6.184;2022-09-09T00:02:40;10.23;;;8.15;;
53052;SDS011;38934;52.690;6.184;2022-09-09T00:05:17;12.15;;;8.95;;
53052;SDS011;38934;52.690;6.184;2022-09-09T00:07:58;12.70;;;9.45;;
53052;SDS011;38934;52.690;6.184;2022-09-09T00:10:34;11.75;;;8.60;;
53052;SDS011;38934;52.690;6.184;2022-09-09T00:15:41;13.60;;;9.23;;
53052;SDS011;38934;52.690;6.184;2022-09-09T00:21:34;11.85;;;8.82;;
53052;SDS011;38934;52.690;6.184;2022-09-09T00:23:43;11.00;;;9.20;;
53052;SDS011;38934;52.690;6.184;2022-09-09T00:31:49;11.90;;;9.10;;
53052;SDS011;38934;52.690;6.184;2022-09-09T00:34:23;13.65;;;10.10;;
53052;SDS011;38934;52.690;6.184;2022-09-09T00:36:52;13.65;;;9.32;;
53052;SDS011;38934;52.690;6.184;2022-09-09T00:39:25;13.77;;;9.88;;
53052;SDS011;38934;52.690;6.184;2022-09-09T00:42:02;11.70;;;9.10;;
53052;SDS011;38934;52.690;6.184;2022-09-09T00:44:58;9.07;;;7.70;;
53052;SDS011;38934;52.690;6.184;2022-09-09T00:47:46;10.88;;;8.27;;
53052;SDS011;38934;52.690;6.184;2022-09-09T00:56:07;11.23;;;7.75;;
53052;SDS011;38934;52.690;6.184;2022-09-09T00:58:40;8.82;;;7.55;;
53052;SDS011;38934;52.690;6.184;2022-09-09T01:01:11;13.68;;;8.48;;
53052;SDS011;38934;52.690;6.184;2022-09-09T01:11:07;11.10;;;7.88;;
53052;SDS011;38934;52.690;6.184;2022-09-09T01:13:40;14.02;;;9.00;;
53052;SDS011;38934;52.690;6.184;2022-09-09T01:16:11;14.07;;;8.98;;
53052;SDS011;38934;52.690;6.184;2022-09-09T01:18:43;10.77;;;8.13;;
53052;SDS011;38934;52.690;6.184;2022-09-09T01:26:43;12.00;;;8.00;;
53052;SDS011;38934;52.690;6.184;2022-09-09T01:29:11;8.77;;;7.15;;
53052;SDS011;38934;52.690;6.184;2022-09-09T01:31:51;9.02;;;7.10;;
53052;SDS011;38934;52.690;6.184;2022-09-09T01:34:17;10.93;;;7.35;;
53052;SDS011;38934;52.690;6.184;2022-09-09T01:39:11;11.70;;;6.95;;
53052;SDS011;38934;52.690;6.184;2022-09-09T01:41:38;8.40;;;6.55;;
53052;SDS011;38934;52.690;6.184;2022-09-09T01:44:03;9.23;;;6.78;;
53052;SDS011;38934;52.690;6.184;2022-09-09T01:46:30;8.25;;;6.45;;
53052;SDS011;38934;52.690;6.184;2022-09-09T01:48:56;9.77;;;6.68;;
53052;SDS011;38934;52.690;6.184;2022-09-09T01:51:24;10.65;;;6.10;;
53052;SDS011;38934;52.690;6.184;2022-09-09T01:53:49;9.20;;;6.32;;
53052;SDS011;38934;52.690;6.184;2022-09-09T02:08:07;9.00;;;6.18;;
53052;SDS011;38934;52.690;6.184;2022-09-09T02:10:53;7.93;;;6.25;;
53052;SDS011;38934;52.690;6.184;2022-09-09T02:13:24;9.77;;;6.22;;
53052;SDS011;38934;52.690;6.184;2022-09-09T02:16:00;12.05;;;7.88;;
53052;SDS011;38934;52.690;6.184;2022-09-09T02:21:29;12.13;;;6.95;;
53052;SDS011;38934;52.690;6.184;2022-09-09T02:23:56;11.25;;;7.93;;
53052;SDS011;38934;52.690;6.184;2022-09-09T02:26:25;9.88;;;6.63;;
53052;SDS011;38934;52.690;6.184;2022-09-09T02:28:52;12.40;;;7.28;;
53052;SDS011;38934;52.690;6.184;2022-09-09T02:31:22;11.20;;;7.30;;
53052;SDS011;38934;52.690;6.184;2022-09-09T02:33:57;8.48;;;6.78;;
53052;SDS011;38934;52.690;6.184;2022-09-09T02:36:26;8.68;;;6.68;;
53052;SDS011;38934;52.690;6.184;2022-09-09T02:38:56;8.65;;;6.13;;
53052;SDS011;38934;52.690;6.184;2022-09-09T02:41:35;8.30;;;6.30;;
53052;SDS011;38934;52.690;6.184;2022-09-09T02:44:10;10.70;;;7.40;;
53052;SDS011;38934;52.690;6.184;2022-09-09T02:49:10;9.65;;;5.85;;
53052;SDS011;38934;52.690;6.184;2022-09-09T02:56:44;9.38;;;6.75;;
53052;SDS011;38934;52.690;6.184;2022-09-09T02:59:15;9.05;;;6.47;;
53052;SDS011;38934;52.690;6.184;2022-09-09T03:01:41;8.60;;;6.20;;
53052;SDS011;38934;52.690;6.184;2022-09-09T03:04:07;12.88;;;6.40;;
53052;SDS011;38934;52.690;6.184;2022-09-09T03:06:32;7.25;;;5.72;;
53052;SDS011;38934;52.690;6.184;2022-09-09T03:08:58;9.13;;;6.22;;
53052;SDS011;38934;52.690;6.184;2022-09-09T03:11:26;7.85;;;6.00;;
53052;SDS011;38934;52.690;6.184;2022-09-09T03:13:52;8.15;;;5.15;;
53052;SDS011;38934;52.690;6.184;2022-09-09T03:16:20;7.47;;;5.28;;
53052;SDS011;38934;52.690;6.184;2022-09-09T03:18:47;7.72;;;5.53;;
53052;SDS011;38934;52.690;6.184;2022-09-09T03:21:12;6.90;;;5.72;;
53052;SDS011;38934;52.690;6.184;2022-09-09T03:23:38;6.95;;;5.70;;
53052;SDS011;38934;52.690;6.184;2022-09-09T03:26:04;5.65;;;4.95;;
53052;SDS011;38934;52.690;6.184;2022-09-09T03:28:29;7.82;;;5.72;;
53052;SDS011;38934;52.690;6.184;2022-09-09T03:30:59;7.28;;;5.63;;
53052;SDS011;38934;52.690;6.184;2022-09-09T03:33:26;8.32;;;5.82;;
53052;SDS011;38934;52.690;6.184;2022-09-09T03:35:52;7.88;;;5.65;;
53052;SDS011;38934;52.690;6.184;2022-09-09T03:38:18;7.45;;;5.72;;
53052;SDS011;38934;52.690;6.184;2022-09-09T03:40:53;8.05;;;5.63;;
53052;SDS011;38934;52.690;6.184;2022-09-09T03:43:21;7.25;;;5.10;;
53052;SDS011;38934;52.690;6.184;2022-09-09T03:45:47;8.52;;;5.30;;
53052;SDS011;38934;52.690;6.184;2022-09-09T03:48:13;8.90;;;5.30;;
53052;SDS011;38934;52.690;6.184;2022-09-09T03:50:43;8.45;;;5.15;;
53052;SDS011;38934;52.690;6.184;2022-09-09T03:53:13;6.47;;;5.53;;
53052;SDS011;38934;52.690;6.184;2022-09-09T03:55:44;7.13;;;5.07;;
53052;SDS011;38934;52.690;6.184;2022-09-09T03:58:10;8.32;;;5.45;;
53052;SDS011;38934;52.690;6.184;2022-09-09T04:00:36;7.45;;;5.60;;
53052;SDS011;38934;52.690;6.184;2022-09-09T04:03:05;8.52;;;5.53;;
53052;SDS011;38934;52.690;6.184;2022-09-09T04:05:30;9.07;;;4.95;;
53052;SDS011;38934;52.690;6.184;2022-09-09T04:07:58;6.75;;;5.20;;
53052;SDS011;38934;52.690;6.184;2022-09-09T04:10:24;10.15;;;6.32;;
53052;SDS011;38934;52.690;6.184;2022-09-09T04:12:50;8.82;;;5.95;;
53052;SDS011;38934;52.690;6.184;2022-09-09T04:15:15;7.93;;;5.10;;
53052;SDS011;38934;52.690;6.184;2022-09-09T04:17:41;8.45;;;5.55;;
53052;SDS011;38934;52.690;6.184;2022-09-09T04:20:07;7.93;;;5.45;;
53052;SDS011;38934;52.690;6.184;2022-09-09T04:22:36;7.05;;;5.05;;
53052;SDS011;38934;52.690;6.184;2022-09-09T04:25:03;8.07;;;5.70;;
53052;SDS011;38934;52.690;6.184;2022-09-09T04:27:30;8.65;;;5.50;;
53052;SDS011;38934;52.690;6.184;2022-09-09T04:29:56;9.02;;;6.10;;
53052;SDS011;38934;52.690;6.184;2022-09-09T04:32:22;11.15;;;6.38;;
53052;SDS011;38934;52.690;6.184;2022-09-09T04:34:48;8.20;;;5.85;;
53052;SDS011;38934;52.690;6.184;2022-09-09T04:37:14;8.65;;;6.22;;
53052;SDS011;38934;52.690;6.184;2022-09-09T04:39:39;8.27;;;5.63;;
53052;SDS011;38934;52.690;6.184;2022-09-09T04:42:05;9.77;;;6.38;;
53052;SDS011;38934;52.690;6.184;2022-09-09T04:44:30;8.60;;;6.20;;
53052;SDS011;38934;52.690;6.184;2022-09-09T04:46:56;8.70;;;6.60;;
53052;SDS011;38934;52.690;6.184;2022-09-09T04:49:21;10.55;;;6.93;;
53052;SDS011;38934;52.690;6.184;2022-09-09T04:51:48;12.95;;;7.80;;
53052;SDS011;38934;52.690;6.184;2022-09-09T04:54:14;12.27;;;8.13;;
53052;SDS011;38934;52.690;6.184;2022-09-09T04:56:40;13.00;;;7.82;;
53052;SDS011;38934;52.690;6.184;2022-09-09T04:59:07;11.20;;;7.70;;
53052;SDS011;38934;52.690;6.184;2022-09-09T05:01:33;9.63;;;7.13;;
53052;SDS011;38934;52.690;6.184;2022-09-09T05:03:59;12.57;;;8.40;;
53052;SDS011;38934;52.690;6.184;2022-09-09T05:06:24;12.35;;;9.23;;
53052;SDS011;38934;52.690;6.184;2022-09-09T05:08:50;13.15;;;8.45;;
53052;SDS011;38934;52.690;6.184;2022-09-09T05:13:45;13.63;;;9.07;;
53052;SDS011;38934;52.690;6.184;2022-09-09T05:16:12;14.38;;;9.18;;
53052;SDS011;38934;52.690;6.184;2022-09-09T05:18:41;13.02;;;9.20;;
53052;SDS011;38934;52.690;6.184;2022-09-09T05:21:08;15.27;;;10.05;;
53052;SDS011;38934;52.690;6.184;2022-09-09T05:23:34;13.60;;;9.75;;
53052;SDS011;38934;52.690;6.184;2022-09-09T05:26:00;12.40;;;8.98;;
53052;SDS011;38934;52.690;6.184;2022-09-09T05:28:27;13.60;;;9.45;;
53052;SDS011;38934;52.690;6.184;2022-09-09T05:30:57;12.02;;;7.53;;
53052;SDS011;38934;52.690;6.184;2022-09-09T05:33:23;10.40;;;8.25;;
53052;SDS011;38934;52.690;6.184;2022-09-09T05:36:07;10.70;;;8.32;;
53052;SDS011;38934;52.690;6.184;2022-09-09T05:38:35;9.98;;;7.70;;
53052;SDS011;38934;52.690;6.184;2022-09-09T05:41:01;11.23;;;7.32;;
53052;SDS011;38934;52.690;6.184;2022-09-09T05:43:28;10.68;;;7.72;;
53052;SDS011;38934;52.690;6.184;2022-09-09T05:48:33;10.27;;;7.70;;
53052;SDS011;38934;52.690;6.184;2022-09-09T05:51:03;9.65;;;7.35;;
53052;SDS011;38934;52.690;6.184;2022-09-09T05:53:32;13.02;;;7.35;;
53052;SDS011;38934;52.690;6.184;2022-09-09T05:56:09;12.40;;;7.38;;
53052;SDS011;38934;52.690;6.184;2022-09-09T05:58:36;8.98;;;7.05;;
53052;SDS011;38934;52.690;6.184;2022-09-09T06:01:04;9.85;;;7.60;;
53052;SDS011;38934;52.690;6.184;2022-09-09T06:03:35;9.82;;;7.32;;
53052;SDS011;38934;52.690;6.184;2022-09-09T06:06:03;8.95;;;7.28;;
53052;SDS011;38934;52.690;6.184;2022-09-09T06:08:31;11.45;;;7.47;;
53052;SDS011;38934;52.690;6.184;2022-09-09T06:11:00;9.18;;;6.95;;
53052;SDS011;38934;52.690;6.184;2022-09-09T06:13:31;10.93;;;7.00;;
53052;SDS011;38934;52.690;6.184;2022-09-09T06:15:56;11.98;;;7.72;;
53052;SDS011;38934;52.690;6.184;2022-09-09T06:18:23;10.65;;;7.90;;
53052;SDS011;38934;52.690;6.184;2022-09-09T06:20:56;18.25;;;9.00;;
53052;SDS011;38934;52.690;6.184;2022-09-09T06:23:23;11.48;;;7.45;;
53052;SDS011;38934;52.690;6.184;2022-09-09T06:25:50;10.43;;;8.23;;
53052;SDS011;38934;52.690;6.184;2022-09-09T06:28:17;10.80;;;8.23;;
53052;SDS011;38934;52.690;6.184;2022-09-09T06:30:43;9.20;;;7.32;;
53052;SDS011;38934;52.690;6.184;2022-09-09T06:33:09;13.45;;;7.70;;
53052;SDS011;38934;52.690;6.184;2022-09-09T06:35:35;12.00;;;7.82;;
53052;SDS011;38934;52.690;6.184;2022-09-09T06:38:00;9.60;;;6.95;;
53052;SDS011;38934;52.690;6.184;2022-09-09T06:40:26;9.55;;;7.00;;
53052;SDS011;38934;52.690;6.184;2022-09-09T06:42:52;10.55;;;6.70;;
53052;SDS011;38934;52.690;6.184;2022-09-09T06:45:18;10.30;;;6.82;;
53052;SDS011;38934;52.690;6.184;2022-09-09T06:47:43;8.18;;;6.43;;
53052;SDS011;38934;52.690;6.184;2022-09-09T06:50:09;7.75;;;6.07;;
53052;SDS011;38934;52.690;6.184;2022-09-09T06:52:36;11.23;;;6.63;;
53052;SDS011;38934;52.690;6.184;2022-09-09T06:55:02;12.07;;;7.68;;
53052;SDS011;38934;52.690;6.184;2022-09-09T06:57:28;6.95;;;6.05;;
53052;SDS011;38934;52.690;6.184;2022-09-09T06:59:54;8.65;;;6.28;;
53052;SDS011;38934;52.690;6.184;2022-09-09T07:02:19;8.05;;;6.60;;
53052;SDS011;38934;52.690;6.184;2022-09-09T07:04:46;10.60;;;6.07;;
53052;SDS011;38934;52.690;6.184;2022-09-09T07:07:11;8.30;;;5.97;;
53052;SDS011;38934;52.690;6.184;2022-09-09T07:09:40;6.95;;;5.72;;
53052;SDS011;38934;52.690;6.184;2022-09-09T07:12:05;10.20;;;6.60;;
53052;SDS011;38934;52.690;6.184;2022-09-09T07:14:31;9.45;;;6.18;;
53052;SDS011;38934;52.690;6.184;2022-09-09T07:16:58;10.43;;;6.30;;
53052;SDS011;38934;52.690;6.184;2022-09-09T07:19:25;8.32;;;5.97;;
53052;SDS011;38934;52.690;6.184;2022-09-09T07:21:50;8.38;;;5.53;;
53052;SDS011;38934;52.690;6.184;2022-09-09T07:24:16;10.25;;;6.18;;
53052;SDS011;38934;52.690;6.184;2022-09-09T07:26:42;7.35;;;6.03;;
53052;SDS011;38934;52.690;6.184;2022-09-09T07:29:09;12.05;;;6.63;;
53052;SDS011;38934;52.690;6.184;2022-09-09T07:31:35;8.40;;;5.65;;
53052;SDS011;38934;52.690;6.184;2022-09-09T07:34:03;8.98;;;6.15;;
53052;SDS011;38934;52.690;6.184;2022-09-09T07:36:30;10.10;;;6.88;;
53052;SDS011;38934;52.690;6.184;2022-09-09T07:38:58;10.75;;;6.20;;
53052;SDS011;38934;52.690;6.184;2022-09-09T07:41:28;9.95;;;6.32;;
53052;SDS011;38934;52.690;6.184;2022-09-09T07:43:59;10.23;;;6.45;;
53052;SDS011;38934;52.690;6.184;2022-09-09T07:46:28;10.60;;;6.53;;
53052;SDS011;38934;52.690;6.184;2022-09-09T07:48:54;13.02;;;6.68;;
53052;SDS011;38934;52.690;6.184;2022-09-09T07:51:23;12.50;;;6.60;;
53052;SDS011;38934;52.690;6.184;2022-09-09T07:53:57;10.27;;;6.28;;
53052;SDS011;38934;52.690;6.184;2022-09-09T07:56:25;10.70;;;6.65;;
53052;SDS011;38934;52.690;6.184;2022-09-09T07:58:52;10.15;;;6.50;;
53052;SDS011;38934;52.690;6.184;2022-09-09T08:01:21;9.48;;;6.65;;
53052;SDS011;38934;52.690;6.184;2022-09-09T08:03:53;11.23;;;6.55;;
53052;SDS011;38934;52.690;6.184;2022-09-09T08:06:24;9.90;;;6.57;;
53052;SDS011;38934;52.690;6.184;2022-09-09T08:08:51;9.13;;;6.60;;
53052;SDS011;38934;52.690;6.184;2022-09-09T08:11:18;11.27;;;6.72;;
53052;SDS011;38934;52.690;6.184;2022-09-09T08:13:44;9.35;;;6.60;;
53052;SDS011;38934;52.690;6.184;2022-09-09T08:16:14;12.13;;;6.55;;
53052;SDS011;38934;52.690;6.184;2022-09-09T08:18:41;11.63;;;6.43;;
53052;SDS011;38934;52.690;6.184;2022-09-09T08:21:14;11.93;;;6.30;;
53052;SDS011;38934;52.690;6.184;2022-09-09T08:23:42;8.80;;;5.75;;
53052;SDS011;38934;52.690;6.184;2022-09-09T08:26:14;8.50;;;5.60;;
53052;SDS011;38934;52.690;6.184;2022-09-09T08:28:41;10.95;;;5.60;;
53052;SDS011;38934;52.690;6.184;2022-09-09T08:31:17;9.93;;;5.78;;
53052;SDS011;38934;52.690;6.184;2022-09-09T08:33:43;7.13;;;5.18;;
53052;SDS011;38934;52.690;6.184;2022-09-09T08:36:12;10.32;;;4.80;;
53052;SDS011;38934;52.690;6.184;2022-09-09T08:38:43;9.32;;;4.93;;
53052;SDS011;38934;52.690;6.184;2022-09-09T08:49:42;9.55;;;4.85;;
53052;SDS011;38934;52.690;6.184;2022-09-09T08:52:30;6.35;;;4.32;;
53052;SDS011;38934;52.690;6.184;2022-09-09T08:57:50;8.45;;;4.60;;
53052;SDS011;38934;52.690;6.184;2022-09-09T09:00:19;7.55;;;4.13;;
53052;SDS011;38934;52.690;6.184;2022-09-09T09:02:55;6.95;;;4.28;;
53052;SDS011;38934;52.690;6.184;2022-09-09T09:06:01;9.10;;;4.25;;
53052;SDS011;38934;52.690;6.184;2022-09-09T09:11:27;8.07;;;3.85;;
53052;SDS011;38934;52.690;6.184;2022-09-09T09:14:14;5.32;;;3.20;;
53052;SDS011;38934;52.690;6.184;2022-09-09T09:16:52;6.32;;;3.60;;
53052;SDS011;38934;52.690;6.184;2022-09-09T09:19:19;7.10;;;3.03;;
53052;SDS011;38934;52.690;6.184;2022-09-09T09:24:31;7.35;;;3.25;;
53052;SDS011;38934;52.690;6.184;2022-09-09T09:27:34;9.02;;;3.33;;
53052;SDS011;38934;52.690;6.184;2022-09-09T09:30:26;5.95;;;2.90;;
53052;SDS011;38934;52.690;6.184;2022-09-09T09:35:27;7.47;;;3.30;;
53052;SDS011;38934;52.690;6.184;2022-09-09T09:37:52;7.63;;;2.97;;
53052;SDS011;38934;52.690;6.184;2022-09-09T09:40:19;5.47;;;2.63;;
53052;SDS011;38934;52.690;6.184;2022-09-09T09:42:53;5.60;;;2.50;;
53052;SDS011;38934;52.690;6.184;2022-09-09T09:45:35;12.38;;;2.97;;
53052;SDS011;38934;52.690;6.184;2022-09-09T09:48:11;5.82;;;2.60;;
53052;SDS011;38934;52.690;6.184;2022-09-09T09:50:57;4.88;;;2.40;;
53052;SDS011;38934;52.690;6.184;2022-09-09T09:53:34;8.07;;;3.20;;
53052;SDS011;38934;52.690;6.184;2022-09-09T09:56:05;5.22;;;2.50;;
53052;SDS011;38934;52.690;6.184;2022-09-09T09:58:33;6.10;;;2.65;;
53052;SDS011;38934;52.690;6.184;2022-09-09T10:01:22;5.15;;;2.63;;
53052;SDS011;38934;52.690;6.184;2022-09-09T10:03:53;6.32;;;2.38;;
53052;SDS011;38934;52.690;6.184;2022-09-09T10:06:35;7.05;;;2.80;;
53052;SDS011;38934;52.690;6.184;2022-09-09T10:09:03;7.80;;;2.90;;
53052;SDS011;38934;52.690;6.184;2022-09-09T10:19:40;7.78;;;2.70;;
53052;SDS011;38934;52.690;6.184;2022-09-09T10:22:34;7.10;;;2.65;;
53052;SDS011;38934;52.690;6.184;2022-09-09T10:27:56;5.13;;;2.50;;
53052;SDS011;38934;52.690;6.184;2022-09-09T10:30:52;5.40;;;2.58;;
53052;SDS011;38934;52.690;6.184;2022-09-09T10:33:57;5.82;;;3.00;;
53052;SDS011;38934;52.690;6.184;2022-09-09T10:36:40;6.30;;;2.92;;
53052;SDS011;38934;52.690;6.184;2022-09-09T10:47:05;6.30;;;2.33;;
53052;SDS011;38934;52.690;6.184;2022-09-09T10:52:40;4.32;;;2.30;;
53052;SDS011;38934;52.690;6.184;2022-09-09T10:55:26;7.95;;;2.70;;
53052;SDS011;38934;52.690;6.184;2022-09-09T10:58:03;6.25;;;2.45;;
53052;SDS011;38934;52.690;6.184;2022-09-09T11:03:05;6.90;;;2.30;;
53052;SDS011;38934;52.690;6.184;2022-09-09T11:06:06;6.43;;;2.50;;
53052;SDS011;38934;52.690;6.184;2022-09-09T11:08:30;5.50;;;2.35;;
53052;SDS011;38934;52.690;6.184;2022-09-09T11:11:07;5.68;;;2.35;;
53052;SDS011;38934;52.690;6.184;2022-09-09T11:19:11;6.25;;;2.10;;
53052;SDS011;38934;52.690;6.184;2022-09-09T11:21:49;6.65;;;2.90;;
53052;SDS011;38934;52.690;6.184;2022-09-09T11:26:58;6.95;;;2.00;;
53052;SDS011;38934;52.690;6.184;2022-09-09T11:32:40;2.53;;;1.80;;
53052;SDS011;38934;52.690;6.184;2022-09-09T11:41:16;4.90;;;1.90;;
53052;SDS011;38934;52.690;6.184;2022-09-09T11:43:46;5.82;;;1.75;;
53052;SDS011;38934;52.690;6.184;2022-09-09T11:46:17;7.47;;;1.83;;
53052;SDS011;38934;52.690;6.184;2022-09-09T11:49:05;4.00;;;1.70;;
53052;SDS011;38934;52.690;6.184;2022-09-09T11:51:48;2.97;;;1.75;;
53052;SDS011;38934;52.690;6.184;2022-09-09T11:54:28;4.85;;;1.92;;
53052;SDS011;38934;52.690;6.184;2022-09-09T11:57:26;4.07;;;1.90;;
53052;SDS011;38934;52.690;6.184;2022-09-09T11:59:58;4.45;;;2.00;;
53052;SDS011;38934;52.690;6.184;2022-09-09T12:02:25;7.25;;;2.20;;
53052;SDS011;38934;52.690;6.184;2022-09-09T12:05:12;4.00;;;1.90;;
53052;SDS011;38934;52.690;6.184;2022-09-09T12:10:23;2.92;;;1.55;;
53052;SDS011;38934;52.690;6.184;2022-09-09T12:13:17;6.35;;;1.77;;
53052;SDS011;38934;52.690;6.184;2022-09-09T12:15:52;4.35;;;1.70;;
53052;SDS011;38934;52.690;6.184;2022-09-09T12:18:21;2.97;;;1.55;;
53052;SDS011;38934;52.690;6.184;2022-09-09T12:21:02;3.63;;;1.73;;
53052;SDS011;38934;52.690;6.184;2022-09-09T12:29:16;3.25;;;1.58;;
53052;SDS011;38934;52.690;6.184;2022-09-09T12:32:11;3.10;;;1.60;;
53052;SDS011;38934;52.690;6.184;2022-09-09T12:34:44;4.75;;;1.77;;
53052;SDS011;38934;52.690;6.184;2022-09-09T12:37:35;3.08;;;1.70;;
53052;SDS011;38934;52.690;6.184;2022-09-09T12:40:04;4.65;;;1.60;;
53052;SDS011;38934;52.690;6.184;2022-09-09T12:42:43;4.78;;;2.00;;
53052;SDS011;38934;52.690;6.184;2022-09-09T12:45:16;4.93;;;1.80;;
53052;SDS011;38934;52.690;6.184;2022-09-09T12:47:56;3.45;;;1.67;;
53052;SDS011;38934;52.690;6.184;2022-09-09T12:50:25;3.67;;;1.92;;
53052;SDS011;38934;52.690;6.184;2022-09-09T12:52:56;4.43;;;2.13;;
53052;SDS011;38934;52.690;6.184;2022-09-09T12:55:32;7.45;;;1.98;;
53052;SDS011;38934;52.690;6.184;2022-09-09T12:58:02;5.53;;;2.20;;
53052;SDS011;38934;52.690;6.184;2022-09-09T13:00:30;5.10;;;2.00;;
53052;SDS011;38934;52.690;6.184;2022-09-09T13:02:58;2.90;;;1.73;;
53052;SDS011;38934;52.690;6.184;2022-09-09T13:05:27;5.97;;;2.38;;
53052;SDS011;38934;52.690;6.184;2022-09-09T13:08:04;8.48;;;2.20;;
53052;SDS011;38934;52.690;6.184;2022-09-09T13:10:33;6.43;;;2.08;;
53052;SDS011;38934;52.690;6.184;2022-09-09T13:13:05;4.00;;;2.30;;
53052;SDS011;38934;52.690;6.184;2022-09-09T13:15:39;5.32;;;2.30;;
53052;SDS011;38934;52.690;6.184;2022-09-09T13:18:13;2.22;;;2.00;;
53052;SDS011;38934;52.690;6.184;2022-09-09T13:20:46;4.32;;;2.42;;
53052;SDS011;38934;52.690;6.184;2022-09-09T13:23:13;7.15;;;1.95;;
53052;SDS011;38934;52.690;6.184;2022-09-09T13:25:42;5.10;;;2.10;;
53052;SDS011;38934;52.690;6.184;2022-09-09T13:28:29;5.32;;;2.10;;
53052;SDS011;38934;52.690;6.184;2022-09-09T13:33:29;6.47;;;2.60;;
53052;SDS011;38934;52.690;6.184;2022-09-09T13:35:56;4.80;;;2.00;;
53052;SDS011;38934;52.690;6.184;2022-09-09T13:38:23;3.92;;;1.92;;
53052;SDS011;38934;52.690;6.184;2022-09-09T13:40:59;4.10;;;2.38;;
53052;SDS011;38934;52.690;6.184;2022-09-09T13:43:30;3.72;;;1.90;;
53052;SDS011;38934;52.690;6.184;2022-09-09T13:46:01;4.97;;;1.98;;
53052;SDS011;38934;52.690;6.184;2022-09-09T13:48:28;3.47;;;1.90;;
53052;SDS011;38934;52.690;6.184;2022-09-09T13:51:03;5.22;;;1.73;;
53052;SDS011;38934;52.690;6.184;2022-09-09T13:53:31;2.40;;;1.50;;
53052;SDS011;38934;52.690;6.184;2022-09-09T13:55:57;5.72;;;1.50;;
53052;SDS011;38934;52.690;6.184;2022-09-09T13:58:23;4.57;;;1.60;;
53052;SDS011;38934;52.690;6.184;2022-09-09T14:00:50;1.50;;;1.40;;
53052;SDS011;38934;52.690;6.184;2022-09-09T14:03:17;2.45;;;1.45;;
53052;SDS011;38934;52.690;6.184;2022-09-09T14:05:44;2.45;;;1.20;;
53052;SDS011;38934;52.690;6.184;2022-09-09T14:08:19;4.82;;;1.60;;
53052;SDS011;38934;52.690;6.184;2022-09-09T14:10:47;3.38;;;1.65;;
53052;SDS011;38934;52.690;6.184;2022-09-09T14:13:13;4.03;;;1.60;;
53052;SDS011;38934;52.690;6.184;2022-09-09T14:15:40;2.63;;;1.52;;
53052;SDS011;38934;52.690;6.184;2022-09-09T14:18:08;3.65;;;1.40;;
53052;SDS011;38934;52.690;6.184;2022-09-09T14:20:36;1.80;;;1.30;;
53052;SDS011;38934;52.690;6.184;2022-09-09T14:23:02;2.35;;;1.55;;
53052;SDS011;38934;52.690;6.184;2022-09-09T14:25:27;2.80;;;1.40;;
53052;SDS011;38934;52.690;6.184;2022-09-09T14:27:53;2.72;;;1.58;;
53052;SDS011;38934;52.690;6.184;2022-09-09T14:30:19;2.25;;;1.30;;
53052;SDS011;38934;52.690;6.184;2022-09-09T14:32:44;2.88;;;1.50;;
53052;SDS011;38934;52.690;6.184;2022-09-09T14:35:10;3.72;;;1.50;;
53052;SDS011;38934;52.690;6.184;2022-09-09T14:37:37;2.15;;;1.52;;
53052;SDS011;38934;52.690;6.184;2022-09-09T14:40:04;2.05;;;1.30;;
53052;SDS011;38934;52.690;6.184;2022-09-09T14:42:30;2.60;;;1.60;;
53052;SDS011;38934;52.690;6.184;2022-09-09T14:44:55;3.03;;;1.50;;
53052;SDS011;38934;52.690;6.184;2022-09-09T14:47:21;6.25;;;1.70;;
53052;SDS011;38934;52.690;6.184;2022-09-09T14:49:47;4.38;;;1.70;;
53052;SDS011;38934;52.690;6.184;2022-09-09T14:52:14;2.35;;;1.50;;
53052;SDS011;38934;52.690;6.184;2022-09-09T14:54:41;3.50;;;1.40;;
53052;SDS011;38934;52.690;6.184;2022-09-09T14:57:06;3.22;;;1.58;;
53052;SDS011;38934;52.690;6.184;2022-09-09T14:59:32;5.10;;;1.77;;
53052;SDS011;38934;52.690;6.184;2022-09-09T15:01:59;2.15;;;1.52;;
53052;SDS011;38934;52.690;6.184;2022-09-09T15:04:29;2.80;;;1.70;;
53052;SDS011;38934;52.690;6.184;2022-09-09T15:06:54;3.67;;;1.70;;
53052;SDS011;38934;52.690;6.184;2022-09-09T15:09:20;3.08;;;1.67;;
53052;SDS011;38934;52.690;6.184;2022-09-09T15:11:45;4.43;;;1.63;;
53052;SDS011;38934;52.690;6.184;2022-09-09T15:14:11;3.30;;;1.52;;
53052;SDS011;38934;52.690;6.184;2022-09-09T15:16:37;2.15;;;1.23;;
53052;SDS011;38934;52.690;6.184;2022-09-09T15:19:04;3.20;;;1.48;;
53052;SDS011;38934;52.690;6.184;2022-09-09T15:21:31;3.97;;;1.70;;
53052;SDS011;38934;52.690;6.184;2022-09-09T15:23:59;4.32;;;1.63;;
53052;SDS011;38934;52.690;6.184;2022-09-09T15:26:25;2.65;;;1.58;;
53052;SDS011;38934;52.690;6.184;2022-09-09T15:28:52;3.75;;;1.63;;
53052;SDS011;38934;52.690;6.184;2022-09-09T15:31:19;1.95;;;1.40;;
53052;SDS011;38934;52.690;6.184;2022-09-09T15:33:50;3.88;;;1.83;;
53052;SDS011;38934;52.690;6.184;2022-09-09T15:36:18;2.90;;;1.48;;
53052;SDS011;38934;52.690;6.184;2022-09-09T15:38:45;3.90;;;1.85;;
53052;SDS011;38934;52.690;6.184;2022-09-09T15:41:11;6.70;;;1.70;;
53052;SDS011;38934;52.690;6.184;2022-09-09T15:43:38;5.75;;;1.77;;
53052;SDS011;38934;52.690;6.184;2022-09-09T15:48:42;2.70;;;1.80;;
53052;SDS011;38934;52.690;6.184;2022-09-09T15:51:09;4.15;;;1.95;;
53052;SDS011;38934;52.690;6.184;2022-09-09T15:53:36;2.40;;;1.60;;
53052;SDS011;38934;52.690;6.184;2022-09-09T15:56:05;3.20;;;1.60;;
53052;SDS011;38934;52.690;6.184;2022-09-09T15:58:31;3.17;;;1.77;;
53052;SDS011;38934;52.690;6.184;2022-09-09T16:01:02;3.20;;;1.90;;
53052;SDS011;38934;52.690;6.184;2022-09-09T16:03:29;4.88;;;2.10;;
53052;SDS011;38934;52.690;6.184;2022-09-09T16:05:58;2.78;;;1.90;;
53052;SDS011;38934;52.690;6.184;2022-09-09T16:08:24;4.28;;;2.03;;
53052;SDS011;38934;52.690;6.184;2022-09-09T16:10:56;5.45;;;2.38;;
53052;SDS011;38934;52.690;6.184;2022-09-09T16:13:28;3.78;;;2.08;;
53052;SDS011;38934;52.690;6.184;2022-09-09T16:15:57;3.22;;;1.92;;
53052;SDS011;38934;52.690;6.184;2022-09-09T16:18:23;2.63;;;1.80;;
53052;SDS011;38934;52.690;6.184;2022-09-09T16:20:55;3.80;;;2.00;;
53052;SDS011;38934;52.690;6.184;2022-09-09T16:23:21;3.65;;;2.17;;
53052;SDS011;38934;52.690;6.184;2022-09-09T16:25:55;4.47;;;2.30;;
53052;SDS011;38934;52.690;6.184;2022-09-09T16:28:22;4.03;;;2.03;;
53052;SDS011;38934;52.690;6.184;2022-09-09T16:30:47;4.90;;;2.38;;
53052;SDS011;38934;52.690;6.184;2022-09-09T16:33:13;2.50;;;1.83;;
53052;SDS011;38934;52.690;6.184;2022-09-09T16:35:42;4.03;;;2.20;;
53052;SDS011;38934;52.690;6.184;2022-09-09T16:38:08;4.45;;;2.30;;
53052;SDS011;38934;52.690;6.184;2022-09-09T16:40:34;3.30;;;1.90;;
53052;SDS011;38934;52.690;6.184;2022-09-09T16:43:00;5.18;;;2.10;;
53052;SDS011;38934;52.690;6.184;2022-09-09T16:45:26;3.15;;;1.90;;
53052;SDS011;38934;52.690;6.184;2022-09-09T16:47:52;4.05;;;2.00;;
53052;SDS011;38934;52.690;6.184;2022-09-09T16:50:18;2.85;;;1.85;;
53052;SDS011;38934;52.690;6.184;2022-09-09T16:52:44;3.55;;;1.90;;
53052;SDS011;38934;52.690;6.184;2022-09-09T16:55:09;3.72;;;1.90;;
53052;SDS011;38934;52.690;6.184;2022-09-09T16:57:35;3.65;;;1.70;;
53052;SDS011;38934;52.690;6.184;2022-09-09T17:00:00;2.88;;;1.60;;
53052;SDS011;38934;52.690;6.184;2022-09-09T17:02:29;4.55;;;2.20;;
53052;SDS011;38934;52.690;6.184;2022-09-09T17:04:54;3.10;;;1.75;;
53052;SDS011;38934;52.690;6.184;2022-09-09T17:07:20;3.70;;;1.90;;
53052;SDS011;38934;52.690;6.184;2022-09-09T17:09:45;2.53;;;1.92;;
53052;SDS011;38934;52.690;6.184;2022-09-09T17:12:11;2.53;;;1.90;;
53052;SDS011;38934;52.690;6.184;2022-09-09T17:14:37;5.18;;;2.00;;
53052;SDS011;38934;52.690;6.184;2022-09-09T17:17:03;2.78;;;1.98;;